sensor_id;sensor_type;location;lat;lon;timestamp;P1;durP1;ratioP1;P2;durP2;ratioP2
19167;SDS011;9716;53.114;18.040;2023-10-31T00:00:04;21.88;;;7.75;;
19167;SDS011;9716;53.114;18.040;2023-10-31T00:02:56;21.02;;;8.48;;
19167;SDS011;9716;53.114;18.040;2023-10-31T00:05:25;21.90;;;9.27;;
19167;SDS011;9716;53.114;18.040;2023-10-31T00:07:53;21.80;;;8.88;;
19167;SDS011;9716;53.114;18.040;2023-10-31T00:10:21;21.65;;;8.40;;
19167;SDS011;9716;53.114;18.040;2023-10-31T00:12:50;18.05;;;7.88;;
19167;SDS011;9716;53.114;18.040;2023-10-31T00:15:19;20.27;;;9.45;;
19167;SDS011;9716;53.114;18.040;2023-10-31T00:17:48;18.70;;;7.20;;
19167;SDS011;9716;53.114;18.040;2023-10-31T00:20:17;17.23;;;8.77;;
19167;SDS011;9716;53.114;18.040;2023-10-31T00:22:46;18.48;;;8.93;;
19167;SDS011;9716;53.114;18.040;2023-10-31T00:25:15;20.05;;;9.00;;
19167;SDS011;9716;53.114;18.040;2023-10-31T00:27:44;18.50;;;8.70;;
19167;SDS011;9716;53.114;18.040;2023-10-31T00:30:14;22.63;;;9.25;;
19167;SDS011;9716;53.114;18.040;2023-10-31T00:32:42;18.27;;;7.53;;
19167;SDS011;9716;53.114;18.040;2023-10-31T00:35:11;19.73;;;8.90;;
19167;SDS011;9716;53.114;18.040;2023-10-31T00:37:41;21.05;;;8.05;;
19167;SDS011;9716;53.114;18.040;2023-10-31T00:40:09;17.20;;;8.65;;
19167;SDS011;9716;53.114;18.040;2023-10-31T00:42:40;15.98;;;7.95;;
19167;SDS011;9716;53.114;18.040;2023-10-31T00:45:09;16.40;;;7.75;;
19167;SDS011;9716;53.114;18.040;2023-10-31T00:47:38;20.83;;;9.07;;
19167;SDS011;9716;53.114;18.040;2023-10-31T00:50:07;17.60;;;8.43;;
19167;SDS011;9716;53.114;18.040;2023-10-31T00:52:36;19.85;;;7.95;;
19167;SDS011;9716;53.114;18.040;2023-10-31T00:55:06;18.45;;;8.43;;
19167;SDS011;9716;53.114;18.040;2023-10-31T00:57:35;19.13;;;8.10;;
19167;SDS011;9716;53.114;18.040;2023-10-31T01:00:03;14.20;;;8.35;;
19167;SDS011;9716;53.114;18.040;2023-10-31T01:02:32;13.93;;;7.95;;
19167;SDS011;9716;53.114;18.040;2023-10-31T01:05:01;14.20;;;8.27;;
19167;SDS011;9716;53.114;18.040;2023-10-31T01:07:29;18.80;;;8.52;;
19167;SDS011;9716;53.114;18.040;2023-10-31T01:09:58;19.52;;;7.85;;
19167;SDS011;9716;53.114;18.040;2023-10-31T01:12:28;17.08;;;8.55;;
19167;SDS011;9716;53.114;18.040;2023-10-31T01:14:57;16.90;;;7.53;;
19167;SDS011;9716;53.114;18.040;2023-10-31T01:17:26;19.50;;;8.00;;
19167;SDS011;9716;53.114;18.040;2023-10-31T01:19:54;17.48;;;9.07;;
19167;SDS011;9716;53.114;18.040;2023-10-31T01:22:23;16.33;;;7.90;;
19167;SDS011;9716;53.114;18.040;2023-10-31T01:24:51;14.82;;;7.93;;
19167;SDS011;9716;53.114;18.040;2023-10-31T01:27:20;20.10;;;8.68;;
19167;SDS011;9716;53.114;18.040;2023-10-31T01:29:50;13.95;;;7.65;;
19167;SDS011;9716;53.114;18.040;2023-10-31T01:32:18;17.45;;;9.15;;
19167;SDS011;9716;53.114;18.040;2023-10-31T01:34:48;14.82;;;8.68;;
19167;SDS011;9716;53.114;18.040;2023-10-31T01:37:17;17.67;;;9.30;;
19167;SDS011;9716;53.114;18.040;2023-10-31T01:39:47;14.93;;;8.30;;
19167;SDS011;9716;53.114;18.040;2023-10-31T01:42:16;14.75;;;8.02;;
19167;SDS011;9716;53.114;18.040;2023-10-31T01:44:45;14.20;;;7.50;;
19167;SDS011;9716;53.114;18.040;2023-10-31T01:47:15;15.52;;;7.45;;
19167;SDS011;9716;53.114;18.040;2023-10-31T01:49:43;19.70;;;8.48;;
19167;SDS011;9716;53.114;18.040;2023-10-31T01:52:12;16.25;;;6.70;;
19167;SDS011;9716;53.114;18.040;2023-10-31T01:54:40;14.07;;;7.13;;
19167;SDS011;9716;53.114;18.040;2023-10-31T01:57:09;20.55;;;8.05;;
19167;SDS011;9716;53.114;18.040;2023-10-31T01:59:38;15.50;;;8.10;;
19167;SDS011;9716;53.114;18.040;2023-10-31T02:02:07;16.63;;;7.70;;
19167;SDS011;9716;53.114;18.040;2023-10-31T02:04:37;18.30;;;7.95;;
19167;SDS011;9716;53.114;18.040;2023-10-31T02:07:06;16.70;;;7.70;;
19167;SDS011;9716;53.114;18.040;2023-10-31T02:09:34;18.35;;;7.68;;
19167;SDS011;9716;53.114;18.040;2023-10-31T02:12:03;18.63;;;8.05;;
19167;SDS011;9716;53.114;18.040;2023-10-31T02:14:31;17.90;;;8.15;;
19167;SDS011;9716;53.114;18.040;2023-10-31T02:17:00;18.10;;;8.38;;
19167;SDS011;9716;53.114;18.040;2023-10-31T02:19:28;14.65;;;8.07;;
19167;SDS011;9716;53.114;18.040;2023-10-31T02:21:58;16.73;;;7.65;;
19167;SDS011;9716;53.114;18.040;2023-10-31T02:24:27;17.58;;;8.32;;
19167;SDS011;9716;53.114;18.040;2023-10-31T02:26:57;19.27;;;8.32;;
19167;SDS011;9716;53.114;18.040;2023-10-31T02:29:26;15.98;;;8.20;;
19167;SDS011;9716;53.114;18.040;2023-10-31T02:31:54;17.25;;;7.45;;
19167;SDS011;9716;53.114;18.040;2023-10-31T02:34:23;17.48;;;7.03;;
19167;SDS011;9716;53.114;18.040;2023-10-31T02:36:53;15.50;;;8.80;;
19167;SDS011;9716;53.114;18.040;2023-10-31T02:39:22;15.60;;;8.15;;
19167;SDS011;9716;53.114;18.040;2023-10-31T02:41:51;18.25;;;8.63;;
19167;SDS011;9716;53.114;18.040;2023-10-31T02:44:19;13.63;;;7.70;;
19167;SDS011;9716;53.114;18.040;2023-10-31T02:46:48;13.50;;;8.02;;
19167;SDS011;9716;53.114;18.040;2023-10-31T02:49:16;18.75;;;8.35;;
19167;SDS011;9716;53.114;18.040;2023-10-31T02:51:45;13.98;;;7.68;;
19167;SDS011;9716;53.114;18.040;2023-10-31T02:54:13;14.68;;;7.95;;
19167;SDS011;9716;53.114;18.040;2023-10-31T02:56:43;22.58;;;7.32;;
19167;SDS011;9716;53.114;18.040;2023-10-31T02:59:11;15.73;;;6.97;;
19167;SDS011;9716;53.114;18.040;2023-10-31T03:01:40;14.77;;;7.20;;
19167;SDS011;9716;53.114;18.040;2023-10-31T03:04:08;14.57;;;8.00;;
19167;SDS011;9716;53.114;18.040;2023-10-31T03:06:37;17.33;;;6.85;;
19167;SDS011;9716;53.114;18.040;2023-10-31T03:09:06;12.25;;;6.65;;
19167;SDS011;9716;53.114;18.040;2023-10-31T03:11:34;10.52;;;6.55;;
19167;SDS011;9716;53.114;18.040;2023-10-31T03:14:04;11.35;;;6.20;;
19167;SDS011;9716;53.114;18.040;2023-10-31T03:16:32;12.88;;;6.78;;
19167;SDS011;9716;53.114;18.040;2023-10-31T03:19:01;20.58;;;7.75;;
19167;SDS011;9716;53.114;18.040;2023-10-31T03:21:30;12.10;;;6.32;;
19167;SDS011;9716;53.114;18.040;2023-10-31T03:23:58;11.38;;;6.82;;
19167;SDS011;9716;53.114;18.040;2023-10-31T03:26:26;16.08;;;7.88;;
19167;SDS011;9716;53.114;18.040;2023-10-31T03:28:55;14.00;;;6.70;;
19167;SDS011;9716;53.114;18.040;2023-10-31T03:31:25;15.20;;;6.13;;
19167;SDS011;9716;53.114;18.040;2023-10-31T03:33:54;12.65;;;6.57;;
19167;SDS011;9716;53.114;18.040;2023-10-31T03:36:23;22.80;;;7.00;;
19167;SDS011;9716;53.114;18.040;2023-10-31T03:38:51;11.32;;;5.43;;
19167;SDS011;9716;53.114;18.040;2023-10-31T03:41:19;15.40;;;6.55;;
19167;SDS011;9716;53.114;18.040;2023-10-31T03:43:48;12.27;;;6.47;;
19167;SDS011;9716;53.114;18.040;2023-10-31T03:46:16;12.90;;;5.70;;
19167;SDS011;9716;53.114;18.040;2023-10-31T03:48:46;13.30;;;5.97;;
19167;SDS011;9716;53.114;18.040;2023-10-31T03:51:15;9.95;;;5.75;;
19167;SDS011;9716;53.114;18.040;2023-10-31T03:53:43;9.45;;;5.70;;
19167;SDS011;9716;53.114;18.040;2023-10-31T03:56:11;9.85;;;5.28;;
19167;SDS011;9716;53.114;18.040;2023-10-31T03:58:40;7.85;;;4.90;;
19167;SDS011;9716;53.114;18.040;2023-10-31T04:01:10;13.55;;;6.60;;
19167;SDS011;9716;53.114;18.040;2023-10-31T04:03:39;11.40;;;5.35;;
19167;SDS011;9716;53.114;18.040;2023-10-31T04:06:09;10.75;;;5.82;;
19167;SDS011;9716;53.114;18.040;2023-10-31T04:08:37;9.43;;;5.15;;
19167;SDS011;9716;53.114;18.040;2023-10-31T04:11:05;10.13;;;5.60;;
19167;SDS011;9716;53.114;18.040;2023-10-31T04:13:34;10.98;;;4.68;;
19167;SDS011;9716;53.114;18.040;2023-10-31T04:16:02;14.55;;;5.30;;
19167;SDS011;9716;53.114;18.040;2023-10-31T04:18:31;18.00;;;5.63;;
19167;SDS011;9716;53.114;18.040;2023-10-31T04:21:00;8.70;;;5.13;;
19167;SDS011;9716;53.114;18.040;2023-10-31T04:23:29;11.35;;;5.95;;
19167;SDS011;9716;53.114;18.040;2023-10-31T04:25:58;10.73;;;5.80;;
19167;SDS011;9716;53.114;18.040;2023-10-31T04:28:26;12.80;;;6.47;;
19167;SDS011;9716;53.114;18.040;2023-10-31T04:30:55;12.60;;;6.43;;
19167;SDS011;9716;53.114;18.040;2023-10-31T04:33:24;12.15;;;7.18;;
19167;SDS011;9716;53.114;18.040;2023-10-31T04:35:52;17.02;;;6.30;;
19167;SDS011;9716;53.114;18.040;2023-10-31T04:38:20;13.73;;;6.30;;
19167;SDS011;9716;53.114;18.040;2023-10-31T04:40:51;14.07;;;6.70;;
19167;SDS011;9716;53.114;18.040;2023-10-31T04:43:19;14.13;;;7.03;;
19167;SDS011;9716;53.114;18.040;2023-10-31T04:45:47;15.63;;;7.53;;
19167;SDS011;9716;53.114;18.040;2023-10-31T04:48:16;14.77;;;6.93;;
19167;SDS011;9716;53.114;18.040;2023-10-31T04:50:44;20.58;;;8.30;;
19167;SDS011;9716;53.114;18.040;2023-10-31T04:53:13;13.77;;;7.93;;
19167;SDS011;9716;53.114;18.040;2023-10-31T04:55:41;15.43;;;7.90;;
19167;SDS011;9716;53.114;18.040;2023-10-31T04:58:11;15.02;;;7.22;;
19167;SDS011;9716;53.114;18.040;2023-10-31T05:00:40;14.07;;;6.72;;
19167;SDS011;9716;53.114;18.040;2023-10-31T05:03:08;14.90;;;7.03;;
19167;SDS011;9716;53.114;18.040;2023-10-31T05:05:37;17.48;;;7.07;;
19167;SDS011;9716;53.114;18.040;2023-10-31T05:08:05;15.95;;;7.35;;
19167;SDS011;9716;53.114;18.040;2023-10-31T05:10:34;14.80;;;7.55;;
19167;SDS011;9716;53.114;18.040;2023-10-31T05:13:03;16.73;;;7.60;;
19167;SDS011;9716;53.114;18.040;2023-10-31T05:15:33;24.08;;;9.10;;
19167;SDS011;9716;53.114;18.040;2023-10-31T05:18:01;15.13;;;7.45;;
19167;SDS011;9716;53.114;18.040;2023-10-31T05:20:30;11.85;;;6.85;;
19167;SDS011;9716;53.114;18.040;2023-10-31T05:22:58;32.75;;;12.38;;
19167;SDS011;9716;53.114;18.040;2023-10-31T05:25:27;16.38;;;8.13;;
19167;SDS011;9716;53.114;18.040;2023-10-31T05:27:56;13.98;;;7.57;;
19167;SDS011;9716;53.114;18.040;2023-10-31T05:30:24;16.30;;;7.25;;
19167;SDS011;9716;53.114;18.040;2023-10-31T05:32:55;16.17;;;6.78;;
19167;SDS011;9716;53.114;18.040;2023-10-31T05:35:24;16.50;;;7.30;;
19167;SDS011;9716;53.114;18.040;2023-10-31T05:37:52;15.00;;;6.80;;
19167;SDS011;9716;53.114;18.040;2023-10-31T05:40:22;17.85;;;7.20;;
19167;SDS011;9716;53.114;18.040;2023-10-31T05:42:51;17.02;;;7.85;;
19167;SDS011;9716;53.114;18.040;2023-10-31T05:45:20;21.73;;;7.18;;
19167;SDS011;9716;53.114;18.040;2023-10-31T05:47:48;10.65;;;6.47;;
19167;SDS011;9716;53.114;18.040;2023-10-31T05:50:18;11.55;;;5.80;;
19167;SDS011;9716;53.114;18.040;2023-10-31T05:52:47;14.20;;;7.32;;
19167;SDS011;9716;53.114;18.040;2023-10-31T05:55:16;10.52;;;5.97;;
19167;SDS011;9716;53.114;18.040;2023-10-31T05:57:44;14.38;;;6.88;;
19167;SDS011;9716;53.114;18.040;2023-10-31T06:00:13;19.65;;;5.80;;
19167;SDS011;9716;53.114;18.040;2023-10-31T06:02:42;11.13;;;5.93;;
19167;SDS011;9716;53.114;18.040;2023-10-31T06:05:11;7.78;;;5.38;;
19167;SDS011;9716;53.114;18.040;2023-10-31T06:07:41;14.00;;;6.10;;
19167;SDS011;9716;53.114;18.040;2023-10-31T06:10:10;12.75;;;6.60;;
19167;SDS011;9716;53.114;18.040;2023-10-31T06:12:38;10.38;;;5.05;;
19167;SDS011;9716;53.114;18.040;2023-10-31T06:15:07;9.32;;;5.00;;
19167;SDS011;9716;53.114;18.040;2023-10-31T06:17:36;13.48;;;5.10;;
19167;SDS011;9716;53.114;18.040;2023-10-31T06:20:06;9.23;;;4.47;;
19167;SDS011;9716;53.114;18.040;2023-10-31T06:22:35;7.60;;;4.55;;
19167;SDS011;9716;53.114;18.040;2023-10-31T06:25:06;7.97;;;4.47;;
19167;SDS011;9716;53.114;18.040;2023-10-31T06:27:34;10.40;;;5.13;;
19167;SDS011;9716;53.114;18.040;2023-10-31T06:30:03;13.25;;;4.57;;
19167;SDS011;9716;53.114;18.040;2023-10-31T06:32:49;6.45;;;4.55;;
19167;SDS011;9716;53.114;18.040;2023-10-31T06:35:18;9.07;;;4.55;;
19167;SDS011;9716;53.114;18.040;2023-10-31T06:37:46;7.30;;;3.60;;
19167;SDS011;9716;53.114;18.040;2023-10-31T06:40:16;8.63;;;4.70;;
19167;SDS011;9716;53.114;18.040;2023-10-31T06:42:44;12.05;;;4.78;;
19167;SDS011;9716;53.114;18.040;2023-10-31T06:45:13;8.95;;;4.75;;
19167;SDS011;9716;53.114;18.040;2023-10-31T06:47:41;7.47;;;3.83;;
19167;SDS011;9716;53.114;18.040;2023-10-31T06:50:10;8.38;;;4.53;;
19167;SDS011;9716;53.114;18.040;2023-10-31T06:52:38;6.95;;;4.15;;
19167;SDS011;9716;53.114;18.040;2023-10-31T06:55:08;9.85;;;4.65;;
19167;SDS011;9716;53.114;18.040;2023-10-31T06:57:37;8.40;;;4.45;;
19167;SDS011;9716;53.114;18.040;2023-10-31T07:00:06;7.55;;;4.40;;
19167;SDS011;9716;53.114;18.040;2023-10-31T07:02:36;7.30;;;3.45;;
19167;SDS011;9716;53.114;18.040;2023-10-31T07:05:05;7.70;;;4.25;;
19167;SDS011;9716;53.114;18.040;2023-10-31T07:07:34;6.15;;;4.00;;
19167;SDS011;9716;53.114;18.040;2023-10-31T07:10:03;13.20;;;4.38;;
19167;SDS011;9716;53.114;18.040;2023-10-31T07:12:32;11.00;;;3.90;;
19167;SDS011;9716;53.114;18.040;2023-10-31T07:15:02;8.85;;;3.83;;
19167;SDS011;9716;53.114;18.040;2023-10-31T07:17:31;5.82;;;4.00;;
19167;SDS011;9716;53.114;18.040;2023-10-31T07:20:00;7.28;;;3.72;;
19167;SDS011;9716;53.114;18.040;2023-10-31T07:22:28;12.80;;;4.90;;
19167;SDS011;9716;53.114;18.040;2023-10-31T07:24:57;5.95;;;3.53;;
19167;SDS011;9716;53.114;18.040;2023-10-31T07:27:26;6.72;;;4.32;;
19167;SDS011;9716;53.114;18.040;2023-10-31T07:29:55;6.70;;;3.20;;
19167;SDS011;9716;53.114;18.040;2023-10-31T07:32:24;8.02;;;4.35;;
19167;SDS011;9716;53.114;18.040;2023-10-31T07:34:54;6.15;;;3.70;;
19167;SDS011;9716;53.114;18.040;2023-10-31T07:37:22;5.57;;;3.47;;
19167;SDS011;9716;53.114;18.040;2023-10-31T07:39:50;6.07;;;3.83;;
19167;SDS011;9716;53.114;18.040;2023-10-31T07:42:19;4.53;;;3.15;;
19167;SDS011;9716;53.114;18.040;2023-10-31T07:44:47;7.35;;;4.28;;
19167;SDS011;9716;53.114;18.040;2023-10-31T07:47:17;7.32;;;3.85;;
19167;SDS011;9716;53.114;18.040;2023-10-31T07:49:47;7.45;;;4.35;;
19167;SDS011;9716;53.114;18.040;2023-10-31T07:52:15;9.82;;;3.80;;
19167;SDS011;9716;53.114;18.040;2023-10-31T07:54:44;7.55;;;3.45;;
19167;SDS011;9716;53.114;18.040;2023-10-31T07:57:12;7.68;;;3.80;;
19167;SDS011;9716;53.114;18.040;2023-10-31T07:59:41;5.47;;;3.60;;
19167;SDS011;9716;53.114;18.040;2023-10-31T08:02:09;4.28;;;2.85;;
19167;SDS011;9716;53.114;18.040;2023-10-31T08:04:38;5.95;;;3.63;;
19167;SDS011;9716;53.114;18.040;2023-10-31T08:07:08;8.32;;;3.47;;
19167;SDS011;9716;53.114;18.040;2023-10-31T08:09:36;10.18;;;3.67;;
19167;SDS011;9716;53.114;18.040;2023-10-31T08:12:05;9.35;;;3.90;;
19167;SDS011;9716;53.114;18.040;2023-10-31T08:14:34;5.90;;;3.67;;
19167;SDS011;9716;53.114;18.040;2023-10-31T08:17:03;6.28;;;3.38;;
19167;SDS011;9716;53.114;18.040;2023-10-31T08:19:32;7.00;;;3.58;;
19167;SDS011;9716;53.114;18.040;2023-10-31T08:22:00;5.68;;;3.78;;
19167;SDS011;9716;53.114;18.040;2023-10-31T08:24:30;7.53;;;3.22;;
19167;SDS011;9716;53.114;18.040;2023-10-31T08:27:01;7.88;;;3.83;;
19167;SDS011;9716;53.114;18.040;2023-10-31T08:29:30;4.47;;;3.08;;
19167;SDS011;9716;53.114;18.040;2023-10-31T08:31:58;5.25;;;3.28;;
19167;SDS011;9716;53.114;18.040;2023-10-31T08:34:27;6.05;;;3.30;;
19167;SDS011;9716;53.114;18.040;2023-10-31T08:36:55;8.02;;;4.07;;
19167;SDS011;9716;53.114;18.040;2023-10-31T08:39:25;13.00;;;3.83;;
19167;SDS011;9716;53.114;18.040;2023-10-31T08:41:56;5.60;;;3.75;;
19167;SDS011;9716;53.114;18.040;2023-10-31T08:44:26;9.95;;;3.90;;
19167;SDS011;9716;53.114;18.040;2023-10-31T08:46:54;7.07;;;4.20;;
19167;SDS011;9716;53.114;18.040;2023-10-31T08:49:23;8.55;;;3.47;;
19167;SDS011;9716;53.114;18.040;2023-10-31T08:51:52;8.65;;;3.80;;
19167;SDS011;9716;53.114;18.040;2023-10-31T08:54:20;8.25;;;3.67;;
19167;SDS011;9716;53.114;18.040;2023-10-31T08:56:48;6.97;;;4.00;;
19167;SDS011;9716;53.114;18.040;2023-10-31T08:59:18;6.22;;;3.63;;
19167;SDS011;9716;53.114;18.040;2023-10-31T09:01:47;7.15;;;4.25;;
19167;SDS011;9716;53.114;18.040;2023-10-31T09:04:16;8.13;;;3.85;;
19167;SDS011;9716;53.114;18.040;2023-10-31T09:06:45;9.25;;;3.70;;
19167;SDS011;9716;53.114;18.040;2023-10-31T09:09:13;6.78;;;3.65;;
19167;SDS011;9716;53.114;18.040;2023-10-31T09:11:41;6.65;;;3.88;;
19167;SDS011;9716;53.114;18.040;2023-10-31T09:14:10;5.97;;;3.58;;
19167;SDS011;9716;53.114;18.040;2023-10-31T09:16:40;7.22;;;3.90;;
19167;SDS011;9716;53.114;18.040;2023-10-31T09:19:09;7.15;;;4.30;;
19167;SDS011;9716;53.114;18.040;2023-10-31T09:21:37;9.13;;;3.67;;
19167;SDS011;9716;53.114;18.040;2023-10-31T09:24:06;5.28;;;3.40;;
19167;SDS011;9716;53.114;18.040;2023-10-31T09:26:36;6.18;;;3.88;;
19167;SDS011;9716;53.114;18.040;2023-10-31T09:29:05;7.30;;;3.55;;
19167;SDS011;9716;53.114;18.040;2023-10-31T09:31:43;6.35;;;3.63;;
19167;SDS011;9716;53.114;18.040;2023-10-31T09:34:11;9.02;;;3.53;;
19167;SDS011;9716;53.114;18.040;2023-10-31T09:36:44;3.60;;;2.85;;
19167;SDS011;9716;53.114;18.040;2023-10-31T09:39:13;5.28;;;3.80;;
19167;SDS011;9716;53.114;18.040;2023-10-31T09:41:41;4.90;;;3.30;;
19167;SDS011;9716;53.114;18.040;2023-10-31T09:44:10;7.13;;;2.83;;
19167;SDS011;9716;53.114;18.040;2023-10-31T09:46:38;7.70;;;3.08;;
19167;SDS011;9716;53.114;18.040;2023-10-31T09:49:09;9.75;;;3.05;;
19167;SDS011;9716;53.114;18.040;2023-10-31T09:51:38;5.55;;;3.28;;
19167;SDS011;9716;53.114;18.040;2023-10-31T09:54:07;9.50;;;3.42;;
19167;SDS011;9716;53.114;18.040;2023-10-31T09:56:36;6.50;;;3.85;;
19167;SDS011;9716;53.114;18.040;2023-10-31T09:59:05;4.63;;;3.42;;
19167;SDS011;9716;53.114;18.040;2023-10-31T10:01:33;6.50;;;3.75;;
19167;SDS011;9716;53.114;18.040;2023-10-31T10:04:02;6.43;;;3.95;;
19167;SDS011;9716;53.114;18.040;2023-10-31T10:06:32;6.15;;;3.47;;
19167;SDS011;9716;53.114;18.040;2023-10-31T10:09:01;5.07;;;3.38;;
19167;SDS011;9716;53.114;18.040;2023-10-31T10:11:33;5.10;;;3.33;;
19167;SDS011;9716;53.114;18.040;2023-10-31T10:14:02;7.20;;;2.95;;
19167;SDS011;9716;53.114;18.040;2023-10-31T10:16:36;11.85;;;4.05;;
19167;SDS011;9716;53.114;18.040;2023-10-31T10:19:15;5.95;;;2.90;;
19167;SDS011;9716;53.114;18.040;2023-10-31T10:21:48;5.85;;;3.28;;
19167;SDS011;9716;53.114;18.040;2023-10-31T10:24:18;4.78;;;3.67;;
19167;SDS011;9716;53.114;18.040;2023-10-31T10:26:47;5.60;;;3.13;;
19167;SDS011;9716;53.114;18.040;2023-10-31T10:29:17;6.05;;;3.47;;
19167;SDS011;9716;53.114;18.040;2023-10-31T10:31:46;4.20;;;3.30;;
19167;SDS011;9716;53.114;18.040;2023-10-31T10:34:15;5.88;;;3.25;;
19167;SDS011;9716;53.114;18.040;2023-10-31T10:36:45;6.63;;;3.17;;
19167;SDS011;9716;53.114;18.040;2023-10-31T10:39:18;4.90;;;3.13;;
19167;SDS011;9716;53.114;18.040;2023-10-31T10:41:51;3.38;;;2.72;;
19167;SDS011;9716;53.114;18.040;2023-10-31T10:44:27;5.57;;;3.10;;
19167;SDS011;9716;53.114;18.040;2023-10-31T10:47:01;5.28;;;3.22;;
19167;SDS011;9716;53.114;18.040;2023-10-31T10:49:32;5.55;;;3.42;;
19167;SDS011;9716;53.114;18.040;2023-10-31T10:52:09;7.30;;;3.38;;
19167;SDS011;9716;53.114;18.040;2023-10-31T10:54:45;6.40;;;3.58;;
19167;SDS011;9716;53.114;18.040;2023-10-31T10:57:20;5.93;;;3.13;;
19167;SDS011;9716;53.114;18.040;2023-10-31T10:59:58;3.95;;;2.92;;
19167;SDS011;9716;53.114;18.040;2023-10-31T11:02:31;6.53;;;4.00;;
19167;SDS011;9716;53.114;18.040;2023-10-31T11:05:01;5.00;;;3.50;;
19167;SDS011;9716;53.114;18.040;2023-10-31T11:07:31;4.53;;;3.63;;
19167;SDS011;9716;53.114;18.040;2023-10-31T11:10:01;6.35;;;3.72;;
19167;SDS011;9716;53.114;18.040;2023-10-31T11:12:32;7.03;;;3.88;;
19167;SDS011;9716;53.114;18.040;2023-10-31T11:15:01;6.15;;;3.92;;
19167;SDS011;9716;53.114;18.040;2023-10-31T11:17:31;6.97;;;4.25;;
19167;SDS011;9716;53.114;18.040;2023-10-31T11:20:02;6.28;;;3.95;;
19167;SDS011;9716;53.114;18.040;2023-10-31T11:22:38;6.88;;;4.10;;
19167;SDS011;9716;53.114;18.040;2023-10-31T11:25:08;6.70;;;3.85;;
19167;SDS011;9716;53.114;18.040;2023-10-31T11:27:49;8.10;;;4.13;;
19167;SDS011;9716;53.114;18.040;2023-10-31T11:30:22;6.15;;;4.80;;
19167;SDS011;9716;53.114;18.040;2023-10-31T11:32:55;8.27;;;4.60;;
19167;SDS011;9716;53.114;18.040;2023-10-31T11:35:29;6.40;;;3.85;;
19167;SDS011;9716;53.114;18.040;2023-10-31T11:38:02;7.05;;;4.35;;
19167;SDS011;9716;53.114;18.040;2023-10-31T11:40:36;9.35;;;4.50;;
19167;SDS011;9716;53.114;18.040;2023-10-31T11:43:05;6.03;;;4.18;;
19167;SDS011;9716;53.114;18.040;2023-10-31T11:45:36;5.40;;;3.67;;
19167;SDS011;9716;53.114;18.040;2023-10-31T11:48:08;6.22;;;3.55;;
19167;SDS011;9716;53.114;18.040;2023-10-31T11:50:37;5.40;;;3.60;;
19167;SDS011;9716;53.114;18.040;2023-10-31T11:53:08;6.18;;;3.50;;
19167;SDS011;9716;53.114;18.040;2023-10-31T11:55:39;8.88;;;3.80;;
19167;SDS011;9716;53.114;18.040;2023-10-31T11:58:16;6.78;;;3.47;;
19167;SDS011;9716;53.114;18.040;2023-10-31T12:00:46;4.80;;;3.10;;
19167;SDS011;9716;53.114;18.040;2023-10-31T12:03:16;4.78;;;3.42;;
19167;SDS011;9716;53.114;18.040;2023-10-31T12:05:53;4.65;;;3.47;;
19167;SDS011;9716;53.114;18.040;2023-10-31T12:08:27;6.10;;;3.53;;
19167;SDS011;9716;53.114;18.040;2023-10-31T12:11:04;5.38;;;3.50;;
19167;SDS011;9716;53.114;18.040;2023-10-31T12:13:34;5.60;;;2.67;;
19167;SDS011;9716;53.114;18.040;2023-10-31T12:16:04;9.23;;;2.92;;
19167;SDS011;9716;53.114;18.040;2023-10-31T12:18:36;4.43;;;2.70;;
19167;SDS011;9716;53.114;18.040;2023-10-31T12:21:06;6.43;;;2.60;;
19167;SDS011;9716;53.114;18.040;2023-10-31T12:23:38;2.78;;;2.33;;
19167;SDS011;9716;53.114;18.040;2023-10-31T12:26:07;4.32;;;2.50;;
19167;SDS011;9716;53.114;18.040;2023-10-31T12:28:36;3.47;;;2.05;;
19167;SDS011;9716;53.114;18.040;2023-10-31T12:31:05;4.50;;;2.55;;
19167;SDS011;9716;53.114;18.040;2023-10-31T12:33:33;4.18;;;2.30;;
19167;SDS011;9716;53.114;18.040;2023-10-31T12:36:03;2.33;;;2.05;;
19167;SDS011;9716;53.114;18.040;2023-10-31T12:38:32;2.78;;;2.03;;
19167;SDS011;9716;53.114;18.040;2023-10-31T12:41:03;3.13;;;2.17;;
19167;SDS011;9716;53.114;18.040;2023-10-31T12:43:32;3.30;;;1.95;;
19167;SDS011;9716;53.114;18.040;2023-10-31T12:48:54;1.83;;;1.63;;
19167;SDS011;9716;53.114;18.040;2023-10-31T12:51:22;3.00;;;1.95;;
19167;SDS011;9716;53.114;18.040;2023-10-31T12:53:51;2.38;;;1.60;;
19167;SDS011;9716;53.114;18.040;2023-10-31T12:56:38;2.33;;;1.70;;
19167;SDS011;9716;53.114;18.040;2023-10-31T12:59:08;4.43;;;2.25;;
19167;SDS011;9716;53.114;18.040;2023-10-31T13:01:42;2.42;;;1.83;;
19167;SDS011;9716;53.114;18.040;2023-10-31T13:04:11;2.85;;;1.90;;
19167;SDS011;9716;53.114;18.040;2023-10-31T13:06:40;2.22;;;1.38;;
19167;SDS011;9716;53.114;18.040;2023-10-31T13:09:08;1.45;;;1.35;;
19167;SDS011;9716;53.114;18.040;2023-10-31T13:11:41;1.50;;;1.35;;
19167;SDS011;9716;53.114;18.040;2023-10-31T13:14:09;1.75;;;1.40;;
19167;SDS011;9716;53.114;18.040;2023-10-31T13:16:39;1.33;;;1.23;;
19167;SDS011;9716;53.114;18.040;2023-10-31T13:19:07;1.50;;;1.40;;
19167;SDS011;9716;53.114;18.040;2023-10-31T13:21:36;3.58;;;1.27;;
19167;SDS011;9716;53.114;18.040;2023-10-31T13:24:04;2.83;;;1.25;;
19167;SDS011;9716;53.114;18.040;2023-10-31T13:26:35;1.98;;;1.10;;
19167;SDS011;9716;53.114;18.040;2023-10-31T13:29:04;3.92;;;1.60;;
19167;SDS011;9716;53.114;18.040;2023-10-31T13:31:33;1.63;;;1.15;;
19167;SDS011;9716;53.114;18.040;2023-10-31T13:34:02;1.10;;;1.00;;
19167;SDS011;9716;53.114;18.040;2023-10-31T13:36:30;1.42;;;1.15;;
19167;SDS011;9716;53.114;18.040;2023-10-31T13:38:58;1.52;;;1.30;;
19167;SDS011;9716;53.114;18.040;2023-10-31T13:41:28;1.42;;;1.33;;
19167;SDS011;9716;53.114;18.040;2023-10-31T13:43:56;3.03;;;1.42;;
19167;SDS011;9716;53.114;18.040;2023-10-31T13:46:26;1.92;;;1.55;;
19167;SDS011;9716;53.114;18.040;2023-10-31T13:48:57;1.67;;;1.30;;
19167;SDS011;9716;53.114;18.040;2023-10-31T13:51:26;1.90;;;1.50;;
19167;SDS011;9716;53.114;18.040;2023-10-31T13:53:55;1.40;;;1.20;;
19167;SDS011;9716;53.114;18.040;2023-10-31T13:56:24;1.30;;;1.20;;
19167;SDS011;9716;53.114;18.040;2023-10-31T13:58:52;1.27;;;1.17;;
19167;SDS011;9716;53.114;18.040;2023-10-31T14:01:21;1.50;;;1.40;;
19167;SDS011;9716;53.114;18.040;2023-10-31T14:03:53;4.13;;;1.95;;
19167;SDS011;9716;53.114;18.040;2023-10-31T14:06:22;1.42;;;1.30;;
19167;SDS011;9716;53.114;18.040;2023-10-31T14:08:58;1.88;;;1.60;;
19167;SDS011;9716;53.114;18.040;2023-10-31T14:11:27;1.70;;;1.60;;
19167;SDS011;9716;53.114;18.040;2023-10-31T14:13:55;2.50;;;1.42;;
19167;SDS011;9716;53.114;18.040;2023-10-31T14:16:27;2.78;;;1.27;;
19167;SDS011;9716;53.114;18.040;2023-10-31T14:18:57;1.10;;;1.00;;
19167;SDS011;9716;53.114;18.040;2023-10-31T14:21:26;1.58;;;1.30;;
19167;SDS011;9716;53.114;18.040;2023-10-31T14:23:54;2.30;;;1.13;;
19167;SDS011;9716;53.114;18.040;2023-10-31T14:26:34;1.40;;;1.30;;
19167;SDS011;9716;53.114;18.040;2023-10-31T14:29:03;1.20;;;1.10;;
19167;SDS011;9716;53.114;18.040;2023-10-31T14:31:37;2.72;;;1.40;;
19167;SDS011;9716;53.114;18.040;2023-10-31T14:34:08;1.27;;;1.17;;
19167;SDS011;9716;53.114;18.040;2023-10-31T14:36:37;1.45;;;1.35;;
19167;SDS011;9716;53.114;18.040;2023-10-31T14:39:05;1.42;;;1.23;;
19167;SDS011;9716;53.114;18.040;2023-10-31T14:41:35;2.78;;;1.70;;
19167;SDS011;9716;53.114;18.040;2023-10-31T14:44:04;1.30;;;1.20;;
19167;SDS011;9716;53.114;18.040;2023-10-31T14:46:33;1.58;;;1.10;;
19167;SDS011;9716;53.114;18.040;2023-10-31T14:49:02;0.90;;;0.90;;
19167;SDS011;9716;53.114;18.040;2023-10-31T14:51:32;1.40;;;1.10;;
19167;SDS011;9716;53.114;18.040;2023-10-31T14:54:00;1.73;;;1.17;;
19167;SDS011;9716;53.114;18.040;2023-10-31T14:56:29;1.17;;;1.02;;
19167;SDS011;9716;53.114;18.040;2023-10-31T14:58:58;1.85;;;1.38;;